UZB603 UZTT-UUDD
Flight info
| Callsign | UZB603 |
|---|---|
| Flight time | 3h 41m |
| Altitude | 36000 |
| Route | N0470F360 MIKNO L163 SIVKO M166 ARISA L736 OLOPI |
| Aircraft | B763/H-VGDW/C |
Departure
| Time | 2026-04-14 12:06 |
|---|---|
| Airport | Tashkent International Airport (UZTT) |
Arrival
| Time | 2026-04-14 15:47 |
|---|---|
| Airport | Domodedovo International Airport (UUDD) |
| Time | Latitude | Longitude | Altitude | Speed | Heading |
|---|---|---|---|---|---|
| 2026-04-14 11:39 | 41.26269 | 69.26909 | 1427 ft | 0 kts | 265° |
| 2026-04-14 11:48 | 41.26269 | 69.26913 | 1427 ft | 2 kts | 263° |
| 2026-04-14 11:48 | 41.26276 | 69.26929 | 1427 ft | 2 kts | 231° |
| 2026-04-14 11:48 | 41.26284 | 69.26945 | 1427 ft | 2 kts | 245° |
| 2026-04-14 11:48 | 41.26289 | 69.26964 | 1427 ft | 2 kts | 246° |
| 2026-04-14 11:49 | 41.26295 | 69.26982 | 1427 ft | 2 kts | 244° |
| 2026-04-14 11:49 | 41.26302 | 69.27000 | 1427 ft | 2 kts | 244° |
| 2026-04-14 11:49 | 41.26308 | 69.27018 | 1427 ft | 2 kts | 245° |
| 2026-04-14 11:49 | 41.26315 | 69.27036 | 1427 ft | 2 kts | 244° |
| 2026-04-14 11:50 | 41.26321 | 69.27055 | 1427 ft | 2 kts | 249° |
| 2026-04-14 11:50 | 41.26323 | 69.27062 | 1427 ft | 0 kts | 262° |
| 2026-04-14 11:52 | 41.26321 | 69.27040 | 1427 ft | 6 kts | 262° |
| 2026-04-14 11:52 | 41.26288 | 69.26991 | 1427 ft | 7 kts | 180° |
| 2026-04-14 11:53 | 41.26253 | 69.27020 | 1427 ft | 5 kts | 138° |
| 2026-04-14 11:53 | 41.26219 | 69.27062 | 1427 ft | 7 kts | 136° |
| 2026-04-14 11:53 | 41.26177 | 69.27108 | 1427 ft | 8 kts | 142° |
| 2026-04-14 11:53 | 41.26138 | 69.27148 | 1427 ft | 6 kts | 142° |
| 2026-04-14 11:54 | 41.26109 | 69.27179 | 1427 ft | 4 kts | 138° |
| 2026-04-14 11:54 | 41.26085 | 69.27208 | 1427 ft | 6 kts | 138° |
| 2026-04-14 11:54 | 41.26066 | 69.27261 | 1427 ft | 7 kts | 83° |
| 2026-04-14 11:54 | 41.26075 | 69.27335 | 1427 ft | 9 kts | 81° |
| 2026-04-14 11:55 | 41.26086 | 69.27426 | 1427 ft | 10 kts | 81° |
| 2026-04-14 11:55 | 41.26098 | 69.27535 | 1427 ft | 12 kts | 81° |
| 2026-04-14 11:55 | 41.26111 | 69.27651 | 1427 ft | 11 kts | 82° |
| 2026-04-14 11:55 | 41.26121 | 69.27747 | 1427 ft | 9 kts | 81° |
| 2026-04-14 11:56 | 41.26129 | 69.27819 | 1427 ft | 6 kts | 81° |
| 2026-04-14 11:56 | 41.26136 | 69.27876 | 1427 ft | 6 kts | 81° |
| 2026-04-14 11:56 | 41.26144 | 69.27952 | 1427 ft | 10 kts | 81° |
| 2026-04-14 11:56 | 41.26155 | 69.28041 | 1427 ft | 8 kts | 81° |
| 2026-04-14 11:57 | 41.26164 | 69.28116 | 1427 ft | 8 kts | 81° |
| 2026-04-14 11:57 | 41.26174 | 69.28211 | 1427 ft | 11 kts | 82° |
| 2026-04-14 11:57 | 41.26186 | 69.28331 | 1427 ft | 14 kts | 82° |
| 2026-04-14 11:57 | 41.26188 | 69.28453 | 1427 ft | 11 kts | 92° |
| 2026-04-14 11:58 | 41.26185 | 69.28552 | 1427 ft | 9 kts | 92° |
| 2026-04-14 11:58 | 41.26182 | 69.28627 | 1427 ft | 7 kts | 92° |
| 2026-04-14 11:58 | 41.26181 | 69.28700 | 1427 ft | 9 kts | 89° |
| 2026-04-14 11:58 | 41.26183 | 69.28797 | 1427 ft | 11 kts | 88° |
| 2026-04-14 11:59 | 41.26187 | 69.28915 | 1427 ft | 13 kts | 86° |
| 2026-04-14 11:59 | 41.26192 | 69.29027 | 1427 ft | 10 kts | 86° |
| 2026-04-14 11:59 | 41.26196 | 69.29115 | 1427 ft | 8 kts | 86° |
| 2026-04-14 11:59 | 41.26199 | 69.29182 | 1427 ft | 6 kts | 86° |
| 2026-04-14 12:00 | 41.26202 | 69.29261 | 1427 ft | 12 kts | 87° |
| 2026-04-14 12:00 | 41.26208 | 69.29407 | 1427 ft | 19 kts | 86° |
| 2026-04-14 12:00 | 41.26217 | 69.29622 | 1427 ft | 24 kts | 89° |
| 2026-04-14 12:00 | 41.26222 | 69.29835 | 1427 ft | 21 kts | 87° |
| 2026-04-14 12:01 | 41.26224 | 69.29889 | 1427 ft | 2 kts | 86° |
| 2026-04-14 12:01 | 41.26225 | 69.29912 | 1427 ft | 3 kts | 86° |
| 2026-04-14 12:01 | 41.26226 | 69.29962 | 1427 ft | 6 kts | 95° |
| 2026-04-14 12:01 | 41.26195 | 69.30017 | 1427 ft | 8 kts | 144° |
| 2026-04-14 12:02 | 41.26140 | 69.30070 | 1427 ft | 10 kts | 142° |
| 2026-04-14 12:02 | 41.26089 | 69.30147 | 1427 ft | 11 kts | 120° |
| 2026-04-14 12:02 | 41.26084 | 69.30237 | 1427 ft | 9 kts | 88° |
| 2026-04-14 12:02 | 41.26087 | 69.30330 | 1427 ft | 10 kts | 88° |
| 2026-04-14 12:03 | 41.26071 | 69.30376 | 1427 ft | 4 kts | 156° |
| 2026-04-14 12:03 | 41.26033 | 69.30390 | 1427 ft | 6 kts | 165° |
| 2026-04-14 12:03 | 41.25988 | 69.30400 | 1427 ft | 7 kts | 172° |
| 2026-04-14 12:03 | 41.25937 | 69.30408 | 1427 ft | 7 kts | 174° |
| 2026-04-14 12:04 | 41.25906 | 69.30379 | 1427 ft | 4 kts | 252° |
| 2026-04-14 12:04 | 41.25906 | 69.30373 | 1427 ft | 0 kts | 255° |
| 2026-04-14 12:05 | 41.25887 | 69.30241 | 1427 ft | 41 kts | 261° |
| 2026-04-14 12:05 | 41.25821 | 69.29615 | 1427 ft | 96 kts | 261° |
| 2026-04-14 12:06 | 41.25695 | 69.28472 | 1427 ft | 150 kts | 261° |
| 2026-04-14 12:06 | 41.25523 | 69.26944 | 1714 ft | 175 kts | 261° |
| 2026-04-14 12:06 | 41.25347 | 69.25354 | 2285 ft | 171 kts | 261° |
| 2026-04-14 12:06 | 41.25166 | 69.23792 | 2608 ft | 174 kts | 260° |
| 2026-04-14 12:07 | 41.24982 | 69.22208 | 2949 ft | 175 kts | 262° |
| 2026-04-14 12:07 | 41.24814 | 69.20606 | 3296 ft | 176 kts | 261° |
| 2026-04-14 12:07 | 41.24636 | 69.18959 | 3511 ft | 187 kts | 261° |
| 2026-04-14 12:07 | 41.24437 | 69.17138 | 3540 ft | 210 kts | 262° |
| 2026-04-14 12:08 | 41.24255 | 69.15108 | 3623 ft | 234 kts | 263° |
| 2026-04-14 12:08 | 41.24072 | 69.12810 | 3657 ft | 262 kts | 267° |
| 2026-04-14 12:08 | 41.24443 | 69.10390 | 4020 ft | 276 kts | 295° |
| 2026-04-14 12:08 | 41.25661 | 69.08439 | 4604 ft | 285 kts | 322° |
| 2026-04-14 12:09 | 41.27478 | 69.07394 | 5238 ft | 293 kts | 348° |
| 2026-04-14 12:09 | 41.29530 | 69.07227 | 5907 ft | 297 kts | 355° |
| 2026-04-14 12:09 | 41.31579 | 69.07027 | 6572 ft | 300 kts | 352° |
| 2026-04-14 12:09 | 41.33564 | 69.06298 | 7215 ft | 300 kts | 329° |
| 2026-04-14 12:10 | 41.35295 | 69.04737 | 7904 ft | 301 kts | 321° |
| 2026-04-14 12:10 | 41.36964 | 69.03069 | 8580 ft | 304 kts | 321° |
| 2026-04-14 12:10 | 41.38616 | 69.01397 | 9547 ft | 294 kts | 320° |
| 2026-04-14 12:10 | 41.40228 | 68.99748 | 10147 ft | 302 kts | 320° |
| 2026-04-14 12:11 | 41.41970 | 68.97949 | 10166 ft | 330 kts | 320° |
| 2026-04-14 12:11 | 41.43832 | 68.96025 | 10204 ft | 355 kts | 320° |
| 2026-04-14 12:11 | 41.45842 | 68.93948 | 10445 ft | 373 kts | 320° |
| 2026-04-14 12:11 | 41.47924 | 68.91795 | 11122 ft | 379 kts | 320° |
| 2026-04-14 12:12 | 41.50008 | 68.89636 | 11841 ft | 382 kts | 320° |
| 2026-04-14 12:12 | 41.52097 | 68.87470 | 12574 ft | 385 kts | 320° |
| 2026-04-14 12:12 | 41.54223 | 68.85264 | 13289 ft | 389 kts | 320° |
| 2026-04-14 12:12 | 41.56380 | 68.83021 | 14014 ft | 392 kts | 320° |
| 2026-04-14 12:13 | 41.58538 | 68.80777 | 14732 ft | 396 kts | 320° |
| 2026-04-14 12:13 | 41.60725 | 68.78500 | 15454 ft | 399 kts | 319° |
| 2026-04-14 12:13 | 41.62913 | 68.76220 | 16161 ft | 403 kts | 319° |
| 2026-04-14 12:13 | 41.65123 | 68.73914 | 16852 ft | 406 kts | 319° |
| 2026-04-14 12:14 | 41.67359 | 68.71581 | 17536 ft | 410 kts | 319° |
| 2026-04-14 12:14 | 41.69601 | 68.69239 | 18212 ft | 413 kts | 319° |
| 2026-04-14 12:14 | 41.71860 | 68.66876 | 18888 ft | 417 kts | 319° |
| 2026-04-14 12:14 | 41.74148 | 68.64481 | 19571 ft | 420 kts | 319° |
| 2026-04-14 12:15 | 41.76457 | 68.62061 | 20264 ft | 424 kts | 319° |
| 2026-04-14 12:15 | 41.78770 | 68.59635 | 20948 ft | 427 kts | 319° |
| 2026-04-14 12:15 | 41.81113 | 68.57176 | 21615 ft | 431 kts | 319° |
| 2026-04-14 12:15 | 41.83461 | 68.54709 | 22261 ft | 434 kts | 319° |
| 2026-04-14 12:16 | 41.85804 | 68.52158 | 22884 ft | 436 kts | 315° |
| 2026-04-14 12:16 | 41.87844 | 68.49192 | 23498 ft | 435 kts | 305° |
| 2026-04-14 12:16 | 41.89632 | 68.45927 | 24108 ft | 437 kts | 303° |
| 2026-04-14 12:16 | 41.91420 | 68.42598 | 24716 ft | 440 kts | 303° |
| 2026-04-14 12:17 | 41.93189 | 68.39269 | 25310 ft | 443 kts | 303° |
| 2026-04-14 12:17 | 41.94986 | 68.35873 | 25909 ft | 447 kts | 303° |
| 2026-04-14 12:17 | 41.96771 | 68.32489 | 26516 ft | 449 kts | 302° |
| 2026-04-14 12:17 | 41.98594 | 68.29027 | 27103 ft | 453 kts | 302° |
| 2026-04-14 12:18 | 42.00406 | 68.25580 | 27681 ft | 456 kts | 302° |
| 2026-04-14 12:18 | 42.02228 | 68.22107 | 28250 ft | 459 kts | 302° |
| 2026-04-14 12:18 | 42.04230 | 68.18761 | 28794 ft | 465 kts | 309° |
| 2026-04-14 12:18 | 42.06447 | 68.15542 | 29350 ft | 468 kts | 309° |
| 2026-04-14 12:19 | 42.08651 | 68.12341 | 29941 ft | 470 kts | 309° |
| 2026-04-14 12:19 | 42.10872 | 68.09123 | 30684 ft | 467 kts | 309° |
| 2026-04-14 12:19 | 42.13041 | 68.05981 | 31389 ft | 464 kts | 309° |
| 2026-04-14 12:19 | 42.15220 | 68.02820 | 32064 ft | 461 kts | 309° |
| 2026-04-14 12:20 | 42.17400 | 67.99657 | 32703 ft | 458 kts | 309° |
| 2026-04-14 12:20 | 42.19569 | 67.96506 | 33316 ft | 455 kts | 309° |
| 2026-04-14 12:20 | 42.21689 | 67.93424 | 33847 ft | 453 kts | 309° |
| 2026-04-14 12:20 | 42.23820 | 67.90322 | 34347 ft | 451 kts | 309° |
| 2026-04-14 12:21 | 42.25957 | 67.87209 | 34795 ft | 450 kts | 309° |
| 2026-04-14 12:21 | 42.28069 | 67.84126 | 35215 ft | 448 kts | 309° |
| 2026-04-14 12:21 | 42.30170 | 67.81059 | 35604 ft | 447 kts | 309° |
| 2026-04-14 12:21 | 42.32264 | 67.77998 | 35919 ft | 446 kts | 309° |
| 2026-04-14 12:22 | 42.36466 | 67.71847 | 35934 ft | 446 kts | 309° |
| 2026-04-14 12:22 | 42.40640 | 67.65723 | 35936 ft | 444 kts | 309° |
| 2026-04-14 12:23 | 42.44832 | 67.59560 | 35936 ft | 445 kts | 309° |
| 2026-04-14 12:23 | 42.48991 | 67.53432 | 35935 ft | 444 kts | 309° |
| 2026-04-14 12:24 | 42.53159 | 67.47278 | 35935 ft | 444 kts | 309° |
| 2026-04-14 12:24 | 42.57322 | 67.41119 | 35935 ft | 444 kts | 309° |
| 2026-04-14 12:25 | 42.61482 | 67.34959 | 35934 ft | 444 kts | 308° |
| 2026-04-14 12:25 | 42.65658 | 67.28762 | 35941 ft | 444 kts | 309° |
| 2026-04-14 12:26 | 42.69799 | 67.22604 | 35941 ft | 444 kts | 309° |
| 2026-04-14 12:26 | 42.73948 | 67.16420 | 35940 ft | 445 kts | 308° |
| 2026-04-14 12:27 | 42.78141 | 67.10158 | 35941 ft | 448 kts | 308° |
| 2026-04-14 12:27 | 42.82325 | 67.03894 | 35940 ft | 450 kts | 308° |
| 2026-04-14 12:28 | 42.86524 | 66.97595 | 35940 ft | 452 kts | 308° |
| 2026-04-14 12:28 | 42.90753 | 66.91238 | 35940 ft | 453 kts | 308° |
| 2026-04-14 12:29 | 42.94997 | 66.84845 | 35939 ft | 453 kts | 308° |
| 2026-04-14 12:29 | 42.99210 | 66.78483 | 35940 ft | 454 kts | 308° |
| 2026-04-14 12:30 | 43.03449 | 66.72057 | 35939 ft | 455 kts | 308° |
| 2026-04-14 12:30 | 43.07659 | 66.65659 | 35939 ft | 455 kts | 308° |
| 2026-04-14 12:31 | 43.11877 | 66.59237 | 35934 ft | 455 kts | 308° |
| 2026-04-14 12:31 | 43.16093 | 66.52802 | 35935 ft | 455 kts | 308° |
| 2026-04-14 12:32 | 43.20321 | 66.46335 | 35935 ft | 455 kts | 308° |
| 2026-04-14 12:32 | 43.24530 | 66.39889 | 35935 ft | 455 kts | 308° |
| 2026-04-14 12:33 | 43.28740 | 66.33424 | 35938 ft | 455 kts | 307° |
| 2026-04-14 12:33 | 43.32961 | 66.26929 | 35938 ft | 454 kts | 307° |
| 2026-04-14 12:34 | 43.37135 | 66.20493 | 35939 ft | 455 kts | 307° |
| 2026-04-14 12:34 | 43.41334 | 66.14002 | 35939 ft | 455 kts | 307° |
| 2026-04-14 12:35 | 43.45522 | 66.07516 | 35939 ft | 455 kts | 307° |
| 2026-04-14 12:35 | 43.49736 | 66.00971 | 35939 ft | 455 kts | 307° |
| 2026-04-14 12:36 | 43.53911 | 65.94474 | 35939 ft | 455 kts | 307° |
| 2026-04-14 12:36 | 43.58083 | 65.87968 | 35939 ft | 455 kts | 307° |
| 2026-04-14 12:37 | 43.62259 | 65.81440 | 35939 ft | 455 kts | 307° |
| 2026-04-14 12:37 | 43.66421 | 65.74918 | 35937 ft | 455 kts | 307° |
| 2026-04-14 12:38 | 43.72694 | 65.65063 | 35938 ft | 455 kts | 307° |
| 2026-04-14 12:39 | 43.76860 | 65.58497 | 35937 ft | 455 kts | 307° |
| 2026-04-14 12:39 | 43.80997 | 65.51963 | 35937 ft | 455 kts | 307° |
| 2026-04-14 12:40 | 43.85169 | 65.45358 | 35937 ft | 455 kts | 307° |
| 2026-04-14 12:40 | 43.89294 | 65.38812 | 35937 ft | 455 kts | 307° |
| 2026-04-14 12:41 | 43.93462 | 65.32184 | 35942 ft | 454 kts | 307° |
| 2026-04-14 12:41 | 43.97603 | 65.25584 | 35943 ft | 455 kts | 307° |
| 2026-04-14 12:42 | 44.01739 | 65.18976 | 35942 ft | 454 kts | 307° |
| 2026-04-14 12:42 | 44.05844 | 65.12402 | 35942 ft | 455 kts | 307° |
| 2026-04-14 12:43 | 44.09974 | 65.05772 | 35941 ft | 454 kts | 307° |
| 2026-04-14 12:43 | 44.14112 | 64.99115 | 35938 ft | 453 kts | 307° |
| 2026-04-14 12:44 | 44.18202 | 64.92518 | 35938 ft | 450 kts | 307° |
| 2026-04-14 12:44 | 44.22254 | 64.85968 | 35937 ft | 448 kts | 308° |
| 2026-04-14 12:45 | 44.28341 | 64.76090 | 35937 ft | 447 kts | 308° |
| 2026-04-14 12:45 | 44.32371 | 64.69524 | 35937 ft | 448 kts | 308° |
| 2026-04-14 12:46 | 44.36402 | 64.62942 | 35936 ft | 447 kts | 308° |
| 2026-04-14 12:46 | 44.40457 | 64.56323 | 35936 ft | 447 kts | 308° |
| 2026-04-14 12:47 | 44.44467 | 64.49764 | 35936 ft | 448 kts | 308° |
| 2026-04-14 12:47 | 44.48499 | 64.43145 | 35935 ft | 447 kts | 308° |
| 2026-04-14 12:48 | 44.52519 | 64.36530 | 35935 ft | 447 kts | 308° |
| 2026-04-14 12:48 | 44.56544 | 64.29894 | 35940 ft | 447 kts | 307° |
| 2026-04-14 12:49 | 44.60557 | 64.23260 | 35941 ft | 447 kts | 307° |
| 2026-04-14 12:49 | 44.64579 | 64.16595 | 35940 ft | 447 kts | 307° |
| 2026-04-14 12:50 | 44.70594 | 64.06600 | 35940 ft | 447 kts | 307° |
| 2026-04-14 12:51 | 44.74570 | 63.99975 | 35939 ft | 447 kts | 307° |
| 2026-04-14 12:51 | 44.78590 | 63.93259 | 35939 ft | 447 kts | 307° |
| 2026-04-14 12:52 | 44.82579 | 63.86579 | 35938 ft | 447 kts | 307° |
| 2026-04-14 12:52 | 44.86568 | 63.79884 | 35938 ft | 447 kts | 307° |
| 2026-04-14 12:53 | 44.90548 | 63.73189 | 35937 ft | 447 kts | 307° |
| 2026-04-14 12:53 | 44.94523 | 63.66485 | 35937 ft | 447 kts | 307° |
| 2026-04-14 12:54 | 44.98513 | 63.59742 | 35936 ft | 447 kts | 307° |
| 2026-04-14 12:54 | 45.02482 | 63.53017 | 35936 ft | 448 kts | 307° |
| 2026-04-14 12:55 | 45.06441 | 63.46294 | 35931 ft | 438 kts | 306° |
| 2026-04-14 12:55 | 45.10318 | 63.39688 | 35939 ft | 441 kts | 306° |
| 2026-04-14 12:56 | 45.14246 | 63.32983 | 35940 ft | 444 kts | 305° |
| 2026-04-14 12:56 | 45.18158 | 63.26288 | 35938 ft | 442 kts | 305° |
| 2026-04-14 12:57 | 45.22091 | 63.19540 | 35939 ft | 443 kts | 305° |
| 2026-04-14 12:57 | 45.25988 | 63.12841 | 35939 ft | 442 kts | 305° |
| 2026-04-14 12:58 | 45.29897 | 63.06105 | 35938 ft | 443 kts | 304° |
| 2026-04-14 12:58 | 45.33804 | 62.99357 | 35938 ft | 445 kts | 304° |
| 2026-04-14 12:59 | 45.37732 | 62.92553 | 35937 ft | 447 kts | 304° |
| 2026-04-14 12:59 | 45.41676 | 62.85707 | 35938 ft | 449 kts | 304° |
| 2026-04-14 13:00 | 45.45642 | 62.78804 | 35937 ft | 449 kts | 304° |
| 2026-04-14 13:00 | 45.49574 | 62.71945 | 35937 ft | 449 kts | 304° |
| 2026-04-14 13:01 | 45.53501 | 62.65077 | 35937 ft | 449 kts | 304° |
| 2026-04-14 13:01 | 45.57423 | 62.58203 | 35937 ft | 449 kts | 304° |
| 2026-04-14 13:02 | 45.61367 | 62.51271 | 35937 ft | 449 kts | 304° |
| 2026-04-14 13:02 | 45.65269 | 62.44398 | 35936 ft | 449 kts | 304° |
| 2026-04-14 13:03 | 45.69212 | 62.37434 | 35936 ft | 449 kts | 304° |
| 2026-04-14 13:03 | 45.73127 | 62.30503 | 35942 ft | 448 kts | 303° |
| 2026-04-14 13:04 | 45.77003 | 62.23626 | 35942 ft | 448 kts | 303° |
| 2026-04-14 13:04 | 45.80909 | 62.16676 | 35942 ft | 448 kts | 303° |
| 2026-04-14 13:05 | 45.84987 | 62.09893 | 35945 ft | 453 kts | 309° |
| 2026-04-14 13:05 | 45.89413 | 62.03464 | 35942 ft | 453 kts | 309° |
| 2026-04-14 13:06 | 45.93773 | 61.97055 | 36138 ft | 450 kts | 308° |
| 2026-04-14 13:06 | 45.98177 | 61.90548 | 36132 ft | 454 kts | 309° |
| 2026-04-14 13:07 | 46.02558 | 61.84060 | 36130 ft | 452 kts | 308° |
| 2026-04-14 13:07 | 46.06899 | 61.77612 | 36131 ft | 452 kts | 308° |
| 2026-04-14 13:08 | 46.11283 | 61.71086 | 36124 ft | 452 kts | 308° |
| 2026-04-14 13:08 | 46.15620 | 61.64614 | 36123 ft | 452 kts | 308° |
| 2026-04-14 13:09 | 46.19981 | 61.58076 | 36123 ft | 452 kts | 308° |
| 2026-04-14 13:09 | 46.24337 | 61.51529 | 36123 ft | 452 kts | 308° |
| 2026-04-14 13:10 | 46.28659 | 61.45015 | 36123 ft | 452 kts | 308° |
| 2026-04-14 13:10 | 46.33014 | 61.38438 | 36123 ft | 452 kts | 308° |
| 2026-04-14 13:11 | 46.37328 | 61.31907 | 36130 ft | 452 kts | 308° |
| 2026-04-14 13:11 | 46.41666 | 61.25322 | 36129 ft | 451 kts | 308° |
| 2026-04-14 13:12 | 46.45981 | 61.18758 | 36129 ft | 451 kts | 308° |
| 2026-04-14 13:12 | 46.50286 | 61.12192 | 36128 ft | 447 kts | 308° |
| 2026-04-14 13:13 | 46.54549 | 61.05674 | 36129 ft | 443 kts | 308° |
| 2026-04-14 13:13 | 46.58733 | 60.99262 | 36128 ft | 439 kts | 308° |
| 2026-04-14 13:14 | 46.62922 | 60.92826 | 36127 ft | 436 kts | 308° |
| 2026-04-14 13:14 | 46.67069 | 60.86437 | 36128 ft | 437 kts | 308° |
| 2026-04-14 13:15 | 46.71228 | 60.80017 | 36127 ft | 437 kts | 308° |
| 2026-04-14 13:15 | 46.75367 | 60.73611 | 36127 ft | 437 kts | 308° |
| 2026-04-14 13:16 | 46.79543 | 60.67134 | 36127 ft | 437 kts | 308° |
| 2026-04-14 13:16 | 46.83666 | 60.60722 | 36127 ft | 436 kts | 308° |
| 2026-04-14 13:17 | 46.87814 | 60.54256 | 36126 ft | 437 kts | 308° |
| 2026-04-14 13:17 | 46.91953 | 60.47788 | 36127 ft | 440 kts | 307° |
| 2026-04-14 13:18 | 46.96168 | 60.41185 | 36128 ft | 447 kts | 307° |
| 2026-04-14 13:18 | 47.00427 | 60.34497 | 36128 ft | 451 kts | 307° |
| 2026-04-14 13:19 | 47.04696 | 60.27777 | 36134 ft | 455 kts | 307° |
| 2026-04-14 13:19 | 47.09015 | 60.20963 | 36133 ft | 455 kts | 307° |
| 2026-04-14 13:20 | 47.13312 | 60.14165 | 36125 ft | 455 kts | 307° |
| 2026-04-14 13:20 | 47.17578 | 60.07397 | 36126 ft | 455 kts | 307° |
| 2026-04-14 13:21 | 47.21872 | 60.00569 | 36117 ft | 455 kts | 307° |
| 2026-04-14 13:21 | 47.26175 | 59.93708 | 36036 ft | 456 kts | 307° |
| 2026-04-14 13:22 | 47.30439 | 59.86892 | 36019 ft | 455 kts | 307° |
| 2026-04-14 13:22 | 47.34725 | 59.80023 | 36003 ft | 455 kts | 307° |
| 2026-04-14 13:23 | 47.38996 | 59.73159 | 35991 ft | 456 kts | 307° |
| 2026-04-14 13:23 | 47.43262 | 59.66289 | 35991 ft | 455 kts | 307° |
| 2026-04-14 13:24 | 47.47539 | 59.59380 | 35990 ft | 456 kts | 307° |
| 2026-04-14 13:24 | 47.53915 | 59.49049 | 35989 ft | 456 kts | 307° |
| 2026-04-14 13:25 | 47.58168 | 59.42136 | 35989 ft | 456 kts | 307° |
| 2026-04-14 13:26 | 47.66672 | 59.28259 | 35994 ft | 454 kts | 306° |
| 2026-04-14 13:26 | 47.70908 | 59.21317 | 35997 ft | 455 kts | 306° |
| 2026-04-14 13:27 | 47.75140 | 59.14360 | 35995 ft | 455 kts | 306° |
| 2026-04-14 13:27 | 47.79378 | 59.07375 | 35996 ft | 455 kts | 306° |
| 2026-04-14 13:28 | 47.83592 | 59.00411 | 35997 ft | 454 kts | 306° |
| 2026-04-14 13:28 | 47.87780 | 58.93473 | 35995 ft | 449 kts | 306° |
| 2026-04-14 13:29 | 47.91911 | 58.86607 | 35995 ft | 446 kts | 307° |
| 2026-04-14 13:29 | 47.96022 | 58.79760 | 35994 ft | 443 kts | 307° |
| 2026-04-14 13:30 | 48.00120 | 58.72916 | 35994 ft | 442 kts | 307° |
| 2026-04-14 13:30 | 48.04201 | 58.66084 | 35994 ft | 443 kts | 307° |
| 2026-04-14 13:31 | 48.08270 | 58.59254 | 35993 ft | 443 kts | 307° |
| 2026-04-14 13:31 | 48.12369 | 58.52356 | 35987 ft | 443 kts | 307° |
| 2026-04-14 13:32 | 48.16445 | 58.45479 | 35987 ft | 443 kts | 307° |
| 2026-04-14 13:32 | 48.20515 | 58.38594 | 35987 ft | 443 kts | 307° |
| 2026-04-14 13:33 | 48.24573 | 58.31712 | 35994 ft | 442 kts | 306° |
| 2026-04-14 13:33 | 48.28659 | 58.24764 | 35993 ft | 442 kts | 306° |
| 2026-04-14 13:34 | 48.34737 | 58.14392 | 35993 ft | 442 kts | 306° |
| 2026-04-14 13:35 | 48.38788 | 58.07458 | 35993 ft | 442 kts | 306° |
| 2026-04-14 13:35 | 48.42831 | 58.00521 | 35992 ft | 442 kts | 306° |
| 2026-04-14 13:36 | 48.46866 | 57.93578 | 35992 ft | 442 kts | 306° |
| 2026-04-14 13:36 | 48.50904 | 57.86612 | 35993 ft | 443 kts | 306° |
| 2026-04-14 13:37 | 48.54943 | 57.79626 | 35992 ft | 443 kts | 306° |
| 2026-04-14 13:37 | 48.58978 | 57.72626 | 35992 ft | 443 kts | 306° |
| 2026-04-14 13:38 | 48.62988 | 57.65653 | 35991 ft | 443 kts | 306° |
| 2026-04-14 13:38 | 48.67009 | 57.58642 | 35991 ft | 443 kts | 306° |
| 2026-04-14 13:39 | 48.71041 | 57.51594 | 35991 ft | 442 kts | 306° |
| 2026-04-14 13:39 | 48.75040 | 57.44586 | 35991 ft | 442 kts | 306° |
| 2026-04-14 13:40 | 48.79075 | 57.37503 | 35990 ft | 442 kts | 306° |
| 2026-04-14 13:40 | 48.83086 | 57.30442 | 35997 ft | 442 kts | 305° |
| 2026-04-14 13:41 | 48.87062 | 57.23424 | 35996 ft | 442 kts | 305° |
| 2026-04-14 13:41 | 48.91047 | 57.16373 | 35996 ft | 442 kts | 305° |
| 2026-04-14 13:42 | 48.95050 | 57.09269 | 35997 ft | 442 kts | 305° |
| 2026-04-14 13:42 | 48.99021 | 57.02206 | 35995 ft | 439 kts | 305° |
| 2026-04-14 13:43 | 49.02974 | 56.95153 | 35996 ft | 438 kts | 305° |
| 2026-04-14 13:43 | 49.06911 | 56.88110 | 35996 ft | 438 kts | 305° |
| 2026-04-14 13:44 | 49.10870 | 56.81008 | 35993 ft | 439 kts | 304° |
| 2026-04-14 13:44 | 49.14790 | 56.73957 | 35990 ft | 440 kts | 304° |
| 2026-04-14 13:45 | 49.18749 | 56.66819 | 35988 ft | 439 kts | 304° |
| 2026-04-14 13:45 | 49.22676 | 56.59718 | 35988 ft | 440 kts | 304° |
| 2026-04-14 13:46 | 49.26610 | 56.52585 | 35988 ft | 439 kts | 304° |
| 2026-04-14 13:46 | 49.30548 | 56.45426 | 35988 ft | 439 kts | 304° |
| 2026-04-14 13:47 | 49.34457 | 56.38300 | 35987 ft | 439 kts | 304° |
| 2026-04-14 13:47 | 49.38384 | 56.31122 | 35995 ft | 439 kts | 304° |
| 2026-04-14 13:48 | 49.42284 | 56.23974 | 35994 ft | 438 kts | 304° |
| 2026-04-14 13:48 | 49.46178 | 56.16817 | 35994 ft | 439 kts | 304° |
| 2026-04-14 13:49 | 49.50089 | 56.09609 | 35994 ft | 439 kts | 304° |
| 2026-04-14 13:49 | 49.53975 | 56.02428 | 35993 ft | 438 kts | 304° |
| 2026-04-14 13:50 | 49.57875 | 55.95201 | 35992 ft | 438 kts | 304° |
| 2026-04-14 13:50 | 49.61750 | 55.87999 | 35993 ft | 439 kts | 304° |
| 2026-04-14 13:51 | 49.65644 | 55.80745 | 35992 ft | 438 kts | 304° |
| 2026-04-14 13:51 | 49.69513 | 55.73516 | 35976 ft | 439 kts | 304° |
| 2026-04-14 13:52 | 49.73385 | 55.66261 | 35964 ft | 439 kts | 304° |
| 2026-04-14 13:52 | 49.77253 | 55.58995 | 35964 ft | 439 kts | 304° |
| 2026-04-14 13:53 | 49.81115 | 55.51718 | 35964 ft | 439 kts | 304° |
| 2026-04-14 13:53 | 49.84970 | 55.44434 | 35964 ft | 439 kts | 304° |
| 2026-04-14 13:54 | 49.88848 | 55.37088 | 35969 ft | 439 kts | 304° |
| 2026-04-14 13:54 | 49.92690 | 55.29789 | 35984 ft | 438 kts | 303° |
| 2026-04-14 13:55 | 49.96540 | 55.22454 | 35994 ft | 439 kts | 303° |
| 2026-04-14 13:55 | 50.00377 | 55.15124 | 35997 ft | 438 kts | 303° |
| 2026-04-14 13:56 | 50.04215 | 55.07769 | 35998 ft | 440 kts | 303° |
| 2026-04-14 13:56 | 50.08070 | 55.00363 | 35996 ft | 441 kts | 303° |
| 2026-04-14 13:57 | 50.11897 | 54.92990 | 35989 ft | 441 kts | 303° |
| 2026-04-14 13:57 | 50.15747 | 54.85551 | 35991 ft | 441 kts | 303° |
| 2026-04-14 13:58 | 50.19564 | 54.78157 | 35989 ft | 441 kts | 303° |
| 2026-04-14 13:58 | 50.23420 | 54.70664 | 35990 ft | 441 kts | 303° |
| 2026-04-14 13:59 | 50.27227 | 54.63246 | 35990 ft | 441 kts | 303° |
| 2026-04-14 13:59 | 50.30790 | 54.55513 | 35990 ft | 433 kts | 293° |
| 2026-04-14 14:00 | 50.33438 | 54.47056 | 35988 ft | 432 kts | 291° |
| 2026-04-14 14:00 | 50.35965 | 54.38602 | 35988 ft | 432 kts | 290° |
| 2026-04-14 14:01 | 50.38482 | 54.30045 | 35995 ft | 431 kts | 290° |
| 2026-04-14 14:01 | 50.40968 | 54.21535 | 35995 ft | 431 kts | 289° |
| 2026-04-14 14:02 | 50.43459 | 54.12972 | 35994 ft | 431 kts | 289° |
| 2026-04-14 14:02 | 50.45921 | 54.04476 | 35992 ft | 431 kts | 289° |
| 2026-04-14 14:03 | 50.48392 | 53.95918 | 35992 ft | 431 kts | 289° |
| 2026-04-14 14:03 | 50.50866 | 53.87318 | 35991 ft | 431 kts | 289° |
| 2026-04-14 14:04 | 50.53320 | 53.78757 | 35991 ft | 431 kts | 289° |
| 2026-04-14 14:04 | 50.55773 | 53.70169 | 35998 ft | 431 kts | 289° |
| 2026-04-14 14:05 | 50.58205 | 53.61626 | 36016 ft | 431 kts | 289° |
| 2026-04-14 14:05 | 50.60650 | 53.53001 | 36037 ft | 430 kts | 289° |
| 2026-04-14 14:06 | 50.63071 | 53.44433 | 36044 ft | 430 kts | 289° |
| 2026-04-14 14:06 | 50.65500 | 53.35803 | 36044 ft | 431 kts | 289° |
| 2026-04-14 14:07 | 50.67919 | 53.27183 | 36163 ft | 429 kts | 289° |
| 2026-04-14 14:07 | 50.70333 | 53.18543 | 36157 ft | 431 kts | 289° |
| 2026-04-14 14:08 | 50.72725 | 53.09953 | 36156 ft | 430 kts | 289° |
| 2026-04-14 14:08 | 50.75126 | 53.01298 | 36156 ft | 430 kts | 289° |
| 2026-04-14 14:09 | 50.77504 | 52.92692 | 36156 ft | 429 kts | 289° |
| 2026-04-14 14:09 | 50.79881 | 52.84059 | 36156 ft | 428 kts | 289° |
| 2026-04-14 14:10 | 50.82247 | 52.75432 | 36155 ft | 429 kts | 289° |
| 2026-04-14 14:10 | 50.84618 | 52.66762 | 36156 ft | 428 kts | 290° |
| 2026-04-14 14:11 | 50.86973 | 52.58122 | 36154 ft | 429 kts | 290° |
| 2026-04-14 14:11 | 50.89337 | 52.49507 | 36150 ft | 428 kts | 290° |
| 2026-04-14 14:12 | 50.91697 | 52.40875 | 36153 ft | 430 kts | 290° |
| 2026-04-14 14:12 | 50.94076 | 52.32139 | 36158 ft | 430 kts | 290° |
| 2026-04-14 14:13 | 50.96437 | 52.23441 | 36156 ft | 431 kts | 290° |
| 2026-04-14 14:13 | 50.98801 | 52.14700 | 36158 ft | 433 kts | 290° |
| 2026-04-14 14:14 | 51.01153 | 52.05965 | 36155 ft | 433 kts | 290° |
| 2026-04-14 14:14 | 51.03517 | 51.97154 | 36156 ft | 435 kts | 290° |
| 2026-04-14 14:15 | 51.05881 | 51.88311 | 36155 ft | 434 kts | 291° |
| 2026-04-14 14:15 | 51.08239 | 51.79455 | 36157 ft | 435 kts | 290° |
| 2026-04-14 14:16 | 51.10591 | 51.70586 | 36154 ft | 435 kts | 291° |
| 2026-04-14 14:16 | 51.12931 | 51.61733 | 36152 ft | 434 kts | 291° |
| 2026-04-14 14:17 | 51.16843 | 51.48755 | 36154 ft | 437 kts | 297° |
| 2026-04-14 14:17 | 51.19775 | 51.40314 | 36152 ft | 436 kts | 297° |
| 2026-04-14 14:18 | 51.22704 | 51.31869 | 36156 ft | 436 kts | 296° |
| 2026-04-14 14:18 | 51.25624 | 51.23430 | 36156 ft | 436 kts | 296° |
| 2026-04-14 14:19 | 51.28560 | 51.14918 | 36155 ft | 437 kts | 296° |
| 2026-04-14 14:19 | 51.31477 | 51.06430 | 36154 ft | 436 kts | 296° |
| 2026-04-14 14:20 | 51.34378 | 50.97958 | 36155 ft | 437 kts | 296° |
| 2026-04-14 14:20 | 51.37294 | 50.89415 | 36155 ft | 438 kts | 296° |
| 2026-04-14 14:21 | 51.40207 | 50.80855 | 36154 ft | 438 kts | 297° |
| 2026-04-14 14:21 | 51.43101 | 50.72322 | 36153 ft | 438 kts | 297° |
| 2026-04-14 14:22 | 51.45994 | 50.63761 | 36056 ft | 440 kts | 297° |
| 2026-04-14 14:22 | 51.48888 | 50.55159 | 36044 ft | 437 kts | 296° |
| 2026-04-14 14:23 | 51.51463 | 50.46350 | 36045 ft | 437 kts | 293° |
| 2026-04-14 14:23 | 51.54009 | 50.37493 | 36044 ft | 437 kts | 293° |
| 2026-04-14 14:24 | 51.56550 | 50.28638 | 36049 ft | 437 kts | 292° |
| 2026-04-14 14:24 | 51.59084 | 50.19777 | 36047 ft | 437 kts | 292° |
| 2026-04-14 14:25 | 51.61597 | 50.10959 | 36048 ft | 437 kts | 292° |
| 2026-04-14 14:25 | 51.64129 | 50.02042 | 36047 ft | 437 kts | 292° |
| 2026-04-14 14:26 | 51.66638 | 49.93169 | 36047 ft | 437 kts | 292° |
| 2026-04-14 14:26 | 51.69144 | 49.84277 | 36046 ft | 437 kts | 292° |
| 2026-04-14 14:27 | 51.71655 | 49.75330 | 36047 ft | 437 kts | 292° |
| 2026-04-14 14:27 | 51.74156 | 49.66387 | 36046 ft | 437 kts | 292° |
| 2026-04-14 14:28 | 51.76634 | 49.57491 | 36045 ft | 437 kts | 292° |
| 2026-04-14 14:28 | 51.79110 | 49.48567 | 36045 ft | 437 kts | 292° |
| 2026-04-14 14:29 | 51.81601 | 49.39558 | 36044 ft | 437 kts | 292° |
| 2026-04-14 14:29 | 51.84070 | 49.30593 | 36049 ft | 437 kts | 292° |
| 2026-04-14 14:30 | 51.86525 | 49.21646 | 36048 ft | 437 kts | 292° |
| 2026-04-14 14:30 | 51.88972 | 49.12687 | 36047 ft | 436 kts | 292° |
| 2026-04-14 14:31 | 51.91412 | 49.03721 | 36046 ft | 435 kts | 292° |
| 2026-04-14 14:31 | 51.93839 | 48.94770 | 36046 ft | 435 kts | 293° |
| 2026-04-14 14:32 | 51.96265 | 48.85791 | 36046 ft | 436 kts | 293° |
| 2026-04-14 14:32 | 51.98684 | 48.76789 | 36046 ft | 436 kts | 293° |
| 2026-04-14 14:33 | 52.01087 | 48.67802 | 36045 ft | 435 kts | 293° |
| 2026-04-14 14:33 | 52.03482 | 48.58807 | 36048 ft | 436 kts | 293° |
| 2026-04-14 14:34 | 52.07079 | 48.45234 | 36055 ft | 436 kts | 293° |
| 2026-04-14 14:35 | 52.09464 | 48.36191 | 36058 ft | 435 kts | 293° |
| 2026-04-14 14:35 | 52.11624 | 48.27967 | 36067 ft | 435 kts | 292° |
| 2026-04-14 14:36 | 52.13993 | 48.18944 | 36068 ft | 435 kts | 293° |
| 2026-04-14 14:36 | 52.16462 | 48.09967 | 36061 ft | 435 kts | 293° |
| 2026-04-14 14:37 | 52.18932 | 48.00950 | 36051 ft | 435 kts | 293° |
| 2026-04-14 14:37 | 52.21402 | 47.91899 | 36048 ft | 435 kts | 293° |
| 2026-04-14 14:38 | 52.23846 | 47.82906 | 36046 ft | 435 kts | 293° |
| 2026-04-14 14:38 | 52.26283 | 47.73906 | 36046 ft | 436 kts | 293° |
| 2026-04-14 14:39 | 52.28724 | 47.64856 | 36045 ft | 435 kts | 293° |
| 2026-04-14 14:39 | 52.31151 | 47.55818 | 36046 ft | 435 kts | 293° |
| 2026-04-14 14:40 | 52.33572 | 47.46771 | 36044 ft | 435 kts | 293° |
| 2026-04-14 14:40 | 52.35985 | 47.37729 | 36046 ft | 435 kts | 293° |
| 2026-04-14 14:41 | 52.38407 | 47.28618 | 36048 ft | 435 kts | 292° |
| 2026-04-14 14:41 | 52.40808 | 47.19548 | 36047 ft | 435 kts | 292° |
| 2026-04-14 14:42 | 52.43210 | 47.10440 | 36048 ft | 435 kts | 292° |
| 2026-04-14 14:42 | 52.45601 | 47.01334 | 36047 ft | 435 kts | 292° |
| 2026-04-14 14:43 | 52.47978 | 46.92240 | 36046 ft | 432 kts | 294° |
| 2026-04-14 14:43 | 52.50335 | 46.83188 | 36047 ft | 432 kts | 294° |
| 2026-04-14 14:44 | 52.52684 | 46.74112 | 36047 ft | 434 kts | 295° |
| 2026-04-14 14:44 | 52.55032 | 46.65008 | 36045 ft | 434 kts | 295° |
| 2026-04-14 14:45 | 52.57389 | 46.55824 | 36046 ft | 433 kts | 295° |
| 2026-04-14 14:45 | 52.59714 | 46.46726 | 36045 ft | 434 kts | 295° |
| 2026-04-14 14:46 | 52.62030 | 46.37625 | 36045 ft | 433 kts | 295° |
| 2026-04-14 14:46 | 52.64185 | 46.28352 | 36049 ft | 434 kts | 292° |
| 2026-04-14 14:47 | 52.66272 | 46.19049 | 36046 ft | 434 kts | 292° |
| 2026-04-14 14:47 | 52.68360 | 46.09708 | 36047 ft | 434 kts | 292° |
| 2026-04-14 14:48 | 52.70434 | 46.00389 | 36045 ft | 434 kts | 292° |
| 2026-04-14 14:48 | 52.72510 | 45.91027 | 36046 ft | 434 kts | 292° |
| 2026-04-14 14:49 | 52.74565 | 45.81710 | 36045 ft | 434 kts | 292° |
| 2026-04-14 14:49 | 52.76625 | 45.72333 | 36045 ft | 434 kts | 292° |
| 2026-04-14 14:50 | 52.78688 | 45.62904 | 36051 ft | 444 kts | 292° |
| 2026-04-14 14:50 | 52.80788 | 45.53249 | 36042 ft | 446 kts | 292° |
| 2026-04-14 14:51 | 52.82862 | 45.43662 | 36043 ft | 444 kts | 292° |
| 2026-04-14 14:51 | 52.84936 | 45.34019 | 36043 ft | 445 kts | 291° |
| 2026-04-14 14:52 | 52.87001 | 45.24376 | 36045 ft | 445 kts | 291° |
| 2026-04-14 14:52 | 52.89058 | 45.14721 | 36045 ft | 445 kts | 291° |
| 2026-04-14 14:53 | 52.91098 | 45.05098 | 36044 ft | 444 kts | 291° |
| 2026-04-14 14:53 | 52.93158 | 44.95456 | 36042 ft | 441 kts | 294° |
| 2026-04-14 14:54 | 52.95303 | 44.85941 | 36042 ft | 443 kts | 294° |
| 2026-04-14 14:54 | 52.97438 | 44.76405 | 36041 ft | 443 kts | 294° |
| 2026-04-14 14:55 | 52.99582 | 44.66784 | 36041 ft | 444 kts | 294° |
| 2026-04-14 14:55 | 53.01720 | 44.57136 | 36041 ft | 446 kts | 295° |
| 2026-04-14 14:56 | 53.04907 | 44.42671 | 36041 ft | 447 kts | 295° |
| 2026-04-14 14:56 | 53.07044 | 44.32901 | 36040 ft | 449 kts | 294° |
| 2026-04-14 14:57 | 53.09169 | 44.23145 | 36041 ft | 450 kts | 294° |
| 2026-04-14 14:57 | 53.11291 | 44.13349 | 36053 ft | 452 kts | 294° |
| 2026-04-14 14:58 | 53.13414 | 44.03503 | 36050 ft | 452 kts | 294° |
| 2026-04-14 14:58 | 53.15516 | 43.93704 | 36050 ft | 452 kts | 294° |
| 2026-04-14 14:59 | 53.17632 | 43.83799 | 36050 ft | 452 kts | 294° |
| 2026-04-14 14:59 | 53.19718 | 43.73980 | 36050 ft | 451 kts | 294° |
| 2026-04-14 15:00 | 53.21811 | 43.64080 | 36049 ft | 452 kts | 294° |
| 2026-04-14 15:00 | 53.23885 | 43.54225 | 36049 ft | 451 kts | 294° |
| 2026-04-14 15:01 | 53.25957 | 43.44333 | 36048 ft | 452 kts | 294° |
| 2026-04-14 15:01 | 53.28027 | 43.34396 | 36048 ft | 451 kts | 293° |
| 2026-04-14 15:02 | 53.30086 | 43.24470 | 36050 ft | 453 kts | 293° |
| 2026-04-14 15:02 | 53.32124 | 43.14588 | 36049 ft | 452 kts | 293° |
| 2026-04-14 15:03 | 53.34148 | 43.04727 | 36048 ft | 448 kts | 293° |
| 2026-04-14 15:03 | 53.36158 | 42.94890 | 36048 ft | 447 kts | 294° |
| 2026-04-14 15:04 | 53.38163 | 42.85028 | 36048 ft | 447 kts | 293° |
| 2026-04-14 15:04 | 53.40154 | 42.75183 | 36047 ft | 447 kts | 294° |
| 2026-04-14 15:05 | 53.42151 | 42.65262 | 36047 ft | 447 kts | 294° |
| 2026-04-14 15:05 | 53.44115 | 42.55451 | 36048 ft | 448 kts | 294° |
| 2026-04-14 15:06 | 53.46048 | 42.45515 | 36045 ft | 449 kts | 291° |
| 2026-04-14 15:06 | 53.47818 | 42.35459 | 36002 ft | 449 kts | 291° |
| 2026-04-14 15:07 | 53.49591 | 42.25369 | 35958 ft | 449 kts | 291° |
| 2026-04-14 15:07 | 53.51342 | 42.15354 | 35939 ft | 449 kts | 291° |
| 2026-04-14 15:08 | 53.53088 | 42.05316 | 35939 ft | 449 kts | 291° |
| 2026-04-14 15:08 | 53.54835 | 41.95217 | 35937 ft | 449 kts | 291° |
| 2026-04-14 15:09 | 53.56569 | 41.85131 | 35938 ft | 449 kts | 291° |
| 2026-04-14 15:09 | 53.58292 | 41.75056 | 35938 ft | 449 kts | 291° |
| 2026-04-14 15:10 | 53.60005 | 41.64980 | 35937 ft | 449 kts | 291° |
| 2026-04-14 15:10 | 53.61717 | 41.54850 | 35937 ft | 449 kts | 291° |
| 2026-04-14 15:11 | 53.63416 | 41.44741 | 35935 ft | 448 kts | 291° |
| 2026-04-14 15:11 | 53.65104 | 41.34639 | 35937 ft | 449 kts | 290° |
| 2026-04-14 15:12 | 53.66792 | 41.24479 | 35938 ft | 450 kts | 290° |
| 2026-04-14 15:12 | 53.68464 | 41.14354 | 35937 ft | 449 kts | 290° |
| 2026-04-14 15:13 | 53.70135 | 41.04205 | 35937 ft | 449 kts | 291° |
| 2026-04-14 15:13 | 53.72452 | 40.94545 | 35938 ft | 444 kts | 297° |
| 2026-04-14 15:14 | 53.74925 | 40.84995 | 35937 ft | 445 kts | 297° |
| 2026-04-14 15:14 | 53.77401 | 40.75385 | 35814 ft | 448 kts | 297° |
| 2026-04-14 15:15 | 53.78631 | 40.70593 | 35294 ft | 444 kts | 296° |
| 2026-04-14 15:15 | 53.79852 | 40.65824 | 34768 ft | 439 kts | 297° |
| 2026-04-14 15:15 | 53.81058 | 40.61104 | 34248 ft | 434 kts | 297° |
| 2026-04-14 15:15 | 53.82238 | 40.56481 | 33748 ft | 430 kts | 297° |
| 2026-04-14 15:16 | 53.83420 | 40.51840 | 33258 ft | 431 kts | 297° |
| 2026-04-14 15:16 | 53.84610 | 40.47161 | 32768 ft | 434 kts | 296° |
| 2026-04-14 15:16 | 53.85786 | 40.42526 | 32275 ft | 435 kts | 296° |
| 2026-04-14 15:16 | 53.86975 | 40.37828 | 31779 ft | 435 kts | 296° |
| 2026-04-14 15:17 | 53.88161 | 40.33138 | 31306 ft | 436 kts | 296° |
| 2026-04-14 15:17 | 53.89368 | 40.28373 | 30803 ft | 438 kts | 296° |
| 2026-04-14 15:17 | 53.90569 | 40.23621 | 30299 ft | 438 kts | 296° |
| 2026-04-14 15:17 | 53.91766 | 40.18874 | 29793 ft | 439 kts | 296° |
| 2026-04-14 15:18 | 53.92955 | 40.14147 | 29282 ft | 438 kts | 296° |
| 2026-04-14 15:18 | 53.94139 | 40.09424 | 28765 ft | 433 kts | 296° |
| 2026-04-14 15:18 | 53.95309 | 40.04755 | 28256 ft | 428 kts | 296° |
| 2026-04-14 15:18 | 53.96464 | 40.00132 | 27756 ft | 425 kts | 295° |
| 2026-04-14 15:19 | 53.97621 | 39.95495 | 27259 ft | 422 kts | 295° |
| 2026-04-14 15:19 | 53.98756 | 39.90934 | 26768 ft | 419 kts | 295° |
| 2026-04-14 15:19 | 53.99878 | 39.86419 | 26283 ft | 415 kts | 295° |
| 2026-04-14 15:19 | 54.00993 | 39.81921 | 25802 ft | 412 kts | 295° |
| 2026-04-14 15:20 | 54.02101 | 39.77441 | 25324 ft | 409 kts | 295° |
| 2026-04-14 15:20 | 54.03199 | 39.72999 | 24850 ft | 406 kts | 295° |
| 2026-04-14 15:20 | 54.04279 | 39.68612 | 24383 ft | 403 kts | 295° |
| 2026-04-14 15:20 | 54.05362 | 39.64208 | 23916 ft | 400 kts | 295° |
| 2026-04-14 15:21 | 54.06428 | 39.59866 | 23457 ft | 398 kts | 295° |
| 2026-04-14 15:21 | 54.07485 | 39.55551 | 22999 ft | 395 kts | 295° |
| 2026-04-14 15:21 | 54.08540 | 39.51235 | 22544 ft | 392 kts | 295° |
| 2026-04-14 15:21 | 54.09573 | 39.47004 | 22098 ft | 389 kts | 295° |
| 2026-04-14 15:22 | 54.10570 | 39.42908 | 21673 ft | 387 kts | 295° |
| 2026-04-14 15:22 | 54.11499 | 39.39085 | 21279 ft | 384 kts | 295° |
| 2026-04-14 15:22 | 54.12349 | 39.35585 | 20917 ft | 382 kts | 295° |
| 2026-04-14 15:22 | 54.13208 | 39.32039 | 20550 ft | 380 kts | 294° |
| 2026-04-14 15:23 | 54.14233 | 39.27800 | 20111 ft | 378 kts | 294° |
| 2026-04-14 15:23 | 54.15131 | 39.24082 | 19724 ft | 376 kts | 294° |
| 2026-04-14 15:23 | 54.16135 | 39.19914 | 19289 ft | 373 kts | 294° |
| 2026-04-14 15:23 | 54.17122 | 39.15812 | 18858 ft | 371 kts | 294° |
| 2026-04-14 15:24 | 54.18092 | 39.11770 | 18434 ft | 368 kts | 294° |
| 2026-04-14 15:24 | 54.19065 | 39.07712 | 18016 ft | 366 kts | 294° |
| 2026-04-14 15:24 | 54.20015 | 39.03740 | 17621 ft | 363 kts | 294° |
| 2026-04-14 15:24 | 54.20965 | 38.99761 | 17255 ft | 362 kts | 294° |
| 2026-04-14 15:25 | 54.21905 | 38.95814 | 16907 ft | 357 kts | 294° |
| 2026-04-14 15:25 | 54.23033 | 38.92151 | 16862 ft | 338 kts | 307° |
| 2026-04-14 15:25 | 54.24630 | 38.89345 | 16670 ft | 328 kts | 323° |
| 2026-04-14 15:25 | 54.26565 | 38.87316 | 16307 ft | 324 kts | 331° |
| 2026-04-14 15:26 | 54.28530 | 38.85518 | 15945 ft | 320 kts | 332° |
| 2026-04-14 15:26 | 54.30494 | 38.83780 | 15571 ft | 317 kts | 332° |
| 2026-04-14 15:26 | 54.32447 | 38.82084 | 15205 ft | 315 kts | 333° |
| 2026-04-14 15:26 | 54.34391 | 38.80408 | 14843 ft | 314 kts | 333° |
| 2026-04-14 15:27 | 54.36328 | 38.78745 | 14483 ft | 312 kts | 333° |
| 2026-04-14 15:27 | 54.38267 | 38.77083 | 14124 ft | 310 kts | 333° |
| 2026-04-14 15:27 | 54.40193 | 38.75433 | 13768 ft | 309 kts | 333° |
| 2026-04-14 15:27 | 54.42106 | 38.73792 | 13415 ft | 307 kts | 333° |
| 2026-04-14 15:28 | 54.44020 | 38.72149 | 13062 ft | 306 kts | 333° |
| 2026-04-14 15:28 | 54.45910 | 38.70526 | 12714 ft | 304 kts | 333° |
| 2026-04-14 15:28 | 54.47791 | 38.68909 | 12368 ft | 303 kts | 333° |
| 2026-04-14 15:28 | 54.49686 | 38.67278 | 12055 ft | 300 kts | 333° |
| 2026-04-14 15:29 | 54.51551 | 38.65669 | 11825 ft | 301 kts | 333° |
| 2026-04-14 15:29 | 54.53411 | 38.64063 | 11570 ft | 296 kts | 333° |
| 2026-04-14 15:29 | 54.55233 | 38.62488 | 11309 ft | 291 kts | 333° |
| 2026-04-14 15:29 | 54.56981 | 38.60977 | 11239 ft | 278 kts | 333° |
| 2026-04-14 15:30 | 54.58670 | 38.59514 | 11217 ft | 265 kts | 333° |
| 2026-04-14 15:30 | 54.60292 | 38.58109 | 11193 ft | 252 kts | 333° |
| 2026-04-14 15:30 | 54.61813 | 38.56790 | 11134 ft | 242 kts | 333° |
| 2026-04-14 15:30 | 54.63305 | 38.55494 | 10879 ft | 240 kts | 333° |
| 2026-04-14 15:31 | 54.64796 | 38.54197 | 10609 ft | 239 kts | 333° |
| 2026-04-14 15:31 | 54.66271 | 38.52914 | 10339 ft | 238 kts | 333° |
| 2026-04-14 15:31 | 54.67742 | 38.51634 | 10068 ft | 237 kts | 333° |
| 2026-04-14 15:31 | 54.69217 | 38.50349 | 9797 ft | 236 kts | 333° |
| 2026-04-14 15:32 | 54.70673 | 38.49079 | 9531 ft | 235 kts | 333° |
| 2026-04-14 15:32 | 54.72120 | 38.47800 | 9264 ft | 234 kts | 329° |
| 2026-04-14 15:32 | 54.73280 | 38.45875 | 8965 ft | 234 kts | 302° |
| 2026-04-14 15:32 | 54.73955 | 38.43318 | 8698 ft | 235 kts | 295° |
| 2026-04-14 15:33 | 54.74577 | 38.40698 | 8428 ft | 234 kts | 295° |
| 2026-04-14 15:33 | 54.75190 | 38.38087 | 8163 ft | 233 kts | 295° |
| 2026-04-14 15:33 | 54.75795 | 38.35471 | 7901 ft | 233 kts | 295° |
| 2026-04-14 15:33 | 54.76386 | 38.32888 | 7640 ft | 232 kts | 294° |
| 2026-04-14 15:34 | 54.76980 | 38.30283 | 7384 ft | 232 kts | 294° |
| 2026-04-14 15:34 | 54.77572 | 38.27678 | 7128 ft | 231 kts | 294° |
| 2026-04-14 15:34 | 54.78156 | 38.25099 | 6875 ft | 230 kts | 294° |
| 2026-04-14 15:34 | 54.78798 | 38.22585 | 6614 ft | 228 kts | 306° |
| 2026-04-14 15:35 | 54.79964 | 38.20823 | 6331 ft | 224 kts | 336° |
| 2026-04-14 15:35 | 54.81424 | 38.19910 | 6087 ft | 223 kts | 342° |
| 2026-04-14 15:35 | 54.82874 | 38.19091 | 5982 ft | 219 kts | 342° |
| 2026-04-14 15:35 | 54.84336 | 38.18286 | 5994 ft | 222 kts | 343° |
| 2026-04-14 15:36 | 54.85865 | 38.17852 | 5992 ft | 223 kts | 355° |
| 2026-04-14 15:36 | 54.87416 | 38.17639 | 5790 ft | 226 kts | 353° |
| 2026-04-14 15:36 | 54.88981 | 38.17314 | 5536 ft | 225 kts | 352° |
| 2026-04-14 15:36 | 54.90545 | 38.16982 | 5340 ft | 222 kts | 353° |
| 2026-04-14 15:37 | 54.92069 | 38.16664 | 5210 ft | 220 kts | 353° |
| 2026-04-14 15:37 | 54.93582 | 38.16349 | 5082 ft | 220 kts | 353° |
| 2026-04-14 15:37 | 54.95108 | 38.16032 | 4954 ft | 219 kts | 353° |
| 2026-04-14 15:37 | 54.96610 | 38.15720 | 4827 ft | 219 kts | 353° |
| 2026-04-14 15:38 | 54.98122 | 38.15406 | 4707 ft | 218 kts | 353° |
| 2026-04-14 15:38 | 54.99625 | 38.15094 | 4629 ft | 218 kts | 353° |
| 2026-04-14 15:38 | 55.01145 | 38.14778 | 4550 ft | 219 kts | 353° |
| 2026-04-14 15:38 | 55.02648 | 38.14465 | 4447 ft | 218 kts | 353° |
| 2026-04-14 15:39 | 55.04155 | 38.14153 | 4347 ft | 216 kts | 351° |
| 2026-04-14 15:39 | 55.05632 | 38.13847 | 4227 ft | 214 kts | 352° |
| 2026-04-14 15:39 | 55.07104 | 38.13538 | 4122 ft | 212 kts | 352° |
| 2026-04-14 15:39 | 55.08585 | 38.13229 | 4026 ft | 212 kts | 353° |
| 2026-04-14 15:40 | 55.10041 | 38.12926 | 3922 ft | 213 kts | 352° |
| 2026-04-14 15:40 | 55.11530 | 38.12616 | 3832 ft | 212 kts | 352° |
| 2026-04-14 15:40 | 55.13000 | 38.12239 | 3728 ft | 212 kts | 349° |
| 2026-04-14 15:40 | 55.14438 | 38.11775 | 3627 ft | 210 kts | 349° |
| 2026-04-14 15:41 | 55.15870 | 38.11321 | 3552 ft | 209 kts | 350° |
| 2026-04-14 15:41 | 55.17304 | 38.10867 | 3476 ft | 209 kts | 349° |
| 2026-04-14 15:41 | 55.18768 | 38.10400 | 3414 ft | 212 kts | 350° |
| 2026-04-14 15:41 | 55.20193 | 38.09948 | 3347 ft | 205 kts | 349° |
| 2026-04-14 15:42 | 55.21578 | 38.09512 | 3246 ft | 198 kts | 350° |
| 2026-04-14 15:42 | 55.22914 | 38.09127 | 3180 ft | 189 kts | 350° |
| 2026-04-14 15:42 | 55.24175 | 38.08550 | 3114 ft | 188 kts | 333° |
| 2026-04-14 15:42 | 55.25251 | 38.07341 | 3060 ft | 184 kts | 327° |
| 2026-04-14 15:43 | 55.26325 | 38.06067 | 2997 ft | 187 kts | 327° |
| 2026-04-14 15:43 | 55.27364 | 38.04840 | 3025 ft | 173 kts | 328° |
| 2026-04-14 15:43 | 55.28331 | 38.03693 | 2965 ft | 163 kts | 327° |
| 2026-04-14 15:43 | 55.29271 | 38.02578 | 2994 ft | 167 kts | 327° |
| 2026-04-14 15:44 | 55.30216 | 38.01457 | 2785 ft | 157 kts | 328° |
| 2026-04-14 15:44 | 55.31077 | 38.00426 | 2591 ft | 143 kts | 328° |
| 2026-04-14 15:44 | 55.31871 | 37.99478 | 2387 ft | 132 kts | 328° |
| 2026-04-14 15:44 | 55.32626 | 37.98579 | 2230 ft | 129 kts | 328° |
| 2026-04-14 15:45 | 55.33375 | 37.97686 | 2077 ft | 134 kts | 329° |
| 2026-04-14 15:45 | 55.34175 | 37.96728 | 1902 ft | 138 kts | 328° |
| 2026-04-14 15:45 | 55.34941 | 37.95797 | 1727 ft | 131 kts | 328° |
| 2026-04-14 15:45 | 55.35691 | 37.94890 | 1537 ft | 130 kts | 328° |
| 2026-04-14 15:46 | 55.36427 | 37.93999 | 1345 ft | 130 kts | 329° |
| 2026-04-14 15:46 | 55.37181 | 37.93106 | 1171 ft | 129 kts | 329° |
| 2026-04-14 15:46 | 55.37923 | 37.92226 | 1016 ft | 127 kts | 330° |
| 2026-04-14 15:46 | 55.38641 | 37.91363 | 833 ft | 125 kts | 330° |
| 2026-04-14 15:47 | 55.39357 | 37.90511 | 682 ft | 125 kts | 330° |
| 2026-04-14 15:47 | 55.40073 | 37.89643 | 606 ft | 116 kts | 332° |
| 2026-04-14 15:47 | 55.40590 | 37.89038 | 604 ft | 59 kts | 325° |
| 2026-04-14 15:47 | 55.40808 | 37.88806 | 604 ft | 27 kts | 339° |
| 2026-04-14 15:48 | 55.40931 | 37.88760 | 604 ft | 16 kts | 355° |
| 2026-04-14 15:48 | 55.40997 | 37.88751 | 604 ft | 0 kts | 355° |
| 2026-04-14 15:48 | 55.41000 | 37.88750 | 604 ft | 0 kts | 355° |
| 2026-04-14 15:48 | 55.41008 | 37.88749 | 604 ft | 2 kts | 355° |
| 2026-04-14 15:49 | 55.41029 | 37.88747 | 604 ft | 2 kts | 2° |
| 2026-04-14 15:49 | 55.41041 | 37.88766 | 604 ft | 3 kts | 61° |
| 2026-04-14 15:49 | 55.41044 | 37.88817 | 604 ft | 5 kts | 95° |
| 2026-04-14 15:49 | 55.41019 | 37.88878 | 604 ft | 7 kts | 141° |
| 2026-04-14 15:50 | 55.40969 | 37.88943 | 604 ft | 10 kts | 144° |
| 2026-04-14 15:50 | 55.40904 | 37.89026 | 604 ft | 13 kts | 144° |
| 2026-04-14 15:50 | 55.40829 | 37.89113 | 604 ft | 12 kts | 147° |
| 2026-04-14 15:50 | 55.40778 | 37.89218 | 604 ft | 10 kts | 107° |
| 2026-04-14 15:51 | 55.40776 | 37.89318 | 604 ft | 5 kts | 76° |
| 2026-04-14 15:51 | 55.40792 | 37.89382 | 604 ft | 7 kts | 58° |
| 2026-04-14 15:51 | 55.40829 | 37.89482 | 604 ft | 11 kts | 56° |
| 2026-04-14 15:51 | 55.40870 | 37.89563 | 604 ft | 9 kts | 51° |
| 2026-04-14 15:52 | 55.40915 | 37.89677 | 604 ft | 12 kts | 58° |
| 2026-04-14 15:52 | 55.40971 | 37.89820 | 604 ft | 15 kts | 57° |
| 2026-04-14 15:52 | 55.40996 | 37.89887 | 604 ft | 7 kts | 56° |
| 2026-04-14 15:52 | 55.41013 | 37.89955 | 604 ft | 4 kts | 94° |
| 2026-04-14 15:53 | 55.40990 | 37.90011 | 604 ft | 7 kts | 135° |
| 2026-04-14 15:53 | 55.40984 | 37.90089 | 604 ft | 7 kts | 61° |
| 2026-04-14 15:53 | 55.41018 | 37.90175 | 604 ft | 9 kts | 55° |
| 2026-04-14 15:53 | 55.41064 | 37.90288 | 604 ft | 12 kts | 54° |
| 2026-04-14 15:54 | 55.41157 | 37.90530 | 604 ft | 10 kts | 56° |
| 2026-04-14 15:54 | 55.41198 | 37.90635 | 604 ft | 9 kts | 55° |
| 2026-04-14 15:54 | 55.41235 | 37.90728 | 604 ft | 8 kts | 56° |
| 2026-04-14 15:55 | 55.41275 | 37.90765 | 604 ft | 5 kts | 345° |
| 2026-04-14 15:55 | 55.41310 | 37.90732 | 604 ft | 5 kts | 334° |
| 2026-04-14 15:55 | 55.41347 | 37.90704 | 604 ft | 5 kts | 337° |
| 2026-04-14 15:55 | 55.41380 | 37.90671 | 604 ft | 5 kts | 327° |
| 2026-04-14 15:56 | 55.41408 | 37.90641 | 604 ft | 3 kts | 347° |
| 2026-04-14 15:56 | 55.41429 | 37.90652 | 604 ft | 3 kts | 25° |
| 2026-04-14 15:56 | 55.41446 | 37.90675 | 604 ft | 1 kts | 37° |
| 2026-04-14 15:56 | 55.41468 | 37.90704 | 604 ft | 2 kts | 37° |
| 2026-04-14 15:57 | 55.41491 | 37.90735 | 604 ft | 0 kts | 40° |
| 2026-04-14 15:57 | 55.41519 | 37.90785 | 604 ft | 4 kts | 43° |
| 2026-04-14 15:57 | 55.41521 | 37.90787 | 604 ft | 0 kts | 43° |